createdAt,value
2019-02-11T00:01:23.059Z,15.33
2019-02-11T00:03:59.501Z,13.33
2019-02-11T00:06:24.143Z,10.17
2019-02-11T00:08:54.182Z,10.07
2019-02-11T00:11:23.910Z,14.27
2019-02-11T00:13:53.713Z,17.27
2019-02-11T00:16:23.359Z,16.63
2019-02-11T00:18:53.138Z,13.90
2019-02-11T00:21:22.875Z,9.07
2019-02-11T00:23:52.589Z,14.20
2019-02-11T00:26:22.351Z,10.67
2019-02-11T00:28:52.121Z,9.07
2019-02-11T00:31:21.854Z,9.57
2019-02-11T00:33:51.542Z,9.97
2019-02-11T00:36:21.358Z,8.80
2019-02-11T00:38:51.161Z,17.10
2019-02-11T00:41:20.840Z,11.57
2019-02-11T00:43:50.526Z,11.07
2019-02-11T00:46:20.266Z,9.87
2019-02-11T00:48:50.065Z,8.13
2019-02-11T00:51:20.085Z,10.03
2019-02-11T00:53:49.799Z,6.90
2019-02-11T00:56:19.472Z,8.57
2019-02-11T00:58:49.151Z,10.13
2019-02-11T01:01:18.870Z,9.47
2019-02-11T01:03:48.498Z,11.27
2019-02-11T01:06:18.210Z,5.33
2019-02-11T01:08:47.867Z,10.63
2019-02-11T01:11:17.569Z,8.03
2019-02-11T01:13:47.251Z,12.87
2019-02-11T01:16:16.921Z,8.63
2019-02-11T01:18:46.569Z,10.23
2019-02-11T01:21:16.291Z,10.43
2019-02-11T01:23:45.961Z,9.80
2019-02-11T01:26:15.706Z,12.73
2019-02-11T01:28:45.362Z,11.13
2019-02-11T01:31:15.101Z,9.10
2019-02-11T01:33:44.782Z,8.57
2019-02-11T01:36:14.578Z,10.93
2019-02-11T01:38:44.323Z,12.73
2019-02-11T01:41:14.090Z,9.50
2019-02-11T01:43:43.785Z,7.83
2019-02-11T01:46:13.495Z,11.10
2019-02-11T01:48:43.253Z,10.93
2019-02-11T01:51:12.948Z,14.13
2019-02-11T01:53:42.656Z,13.13
2019-02-11T01:56:12.386Z,15.07
2019-02-11T01:58:42.079Z,19.53
2019-02-11T02:01:11.785Z,13.20
2019-02-11T02:03:44.710Z,20.63
2019-02-11T03:25:41.226Z,17.43
2019-02-11T03:28:10.918Z,17.33
2019-02-11T03:30:40.655Z,17.10
2019-02-11T03:33:10.317Z,15.83
2019-02-11T03:35:40.171Z,20.90
2019-02-11T03:38:09.851Z,10.23
2019-02-11T03:40:39.535Z,24.67
2019-02-11T03:43:09.189Z,13.97
2019-02-11T03:45:38.984Z,12.77
2019-02-11T03:48:08.652Z,15.80
2019-02-11T03:50:38.382Z,11.43
2019-02-11T03:53:08.078Z,23.27
2019-02-11T03:55:37.778Z,12.83
2019-02-11T03:58:07.493Z,19.57
2019-02-11T04:00:37.452Z,15.13
2019-02-11T04:03:07.131Z,31.00
2019-02-11T04:05:36.854Z,16.43
2019-02-11T04:08:06.514Z,15.73
2019-02-11T04:10:36.247Z,19.87
2019-02-11T04:13:06.159Z,19.23
2019-02-11T04:15:35.889Z,20.10
2019-02-11T04:18:05.564Z,27.13
2019-02-11T04:20:35.289Z,14.83
2019-02-11T04:23:05.005Z,17.43
2019-02-11T04:25:34.841Z,20.67
2019-02-11T04:28:04.549Z,20.17
2019-02-11T04:30:34.257Z,19.27
2019-02-11T04:33:03.911Z,14.60
2019-02-11T04:35:33.617Z,16.47
2019-02-11T04:38:03.273Z,19.07
2019-02-11T04:40:32.968Z,20.00
2019-02-11T04:43:02.654Z,14.70
2019-02-11T04:45:32.381Z,22.17
2019-02-11T04:48:02.054Z,19.57
2019-02-11T04:50:31.779Z,17.27
2019-02-11T04:53:01.472Z,19.00
2019-02-11T04:55:31.227Z,23.83
2019-02-11T04:58:00.891Z,15.90
2019-02-11T05:00:30.606Z,14.57
2019-02-11T05:03:00.316Z,20.30
2019-02-11T05:05:31.035Z,22.83
2019-02-11T05:08:00.743Z,19.67
2019-02-11T05:10:32.450Z,24.27
2019-02-11T05:13:02.154Z,15.67
2019-02-11T05:15:31.848Z,18.23
2019-02-11T05:18:01.566Z,26.73
2019-02-11T05:20:31.236Z,28.13
2019-02-11T05:23:00.965Z,22.43
2019-02-11T05:25:30.673Z,18.30
2019-02-11T05:28:00.367Z,26.90
2019-02-11T05:30:30.105Z,24.63
2019-02-11T05:32:59.819Z,25.93
2019-02-11T05:35:29.604Z,24.20
2019-02-11T05:37:59.360Z,17.87
2019-02-11T05:40:29.118Z,28.23
2019-02-11T05:42:58.823Z,33.83
2019-02-11T05:45:28.509Z,22.83
2019-02-11T05:47:58.220Z,40.83
2019-02-11T05:50:27.914Z,19.33
2019-02-11T05:52:57.651Z,18.00
2019-02-11T05:55:27.440Z,16.07
2019-02-11T05:57:57.189Z,26.13
2019-02-11T06:00:26.909Z,20.50
2019-02-11T06:02:56.616Z,23.00
2019-02-11T06:05:26.290Z,26.47
2019-02-11T06:07:55.978Z,19.50
2019-02-11T06:10:25.682Z,28.70
2019-02-11T06:12:55.425Z,21.30
2019-02-11T06:15:25.109Z,30.27
2019-02-11T06:17:54.785Z,28.67
2019-02-11T06:20:24.509Z,25.37
2019-02-11T06:22:54.202Z,27.07
2019-02-11T06:25:23.975Z,23.47
2019-02-11T06:27:53.707Z,18.57
2019-02-11T06:30:23.386Z,22.73
2019-02-11T06:32:53.097Z,19.70
2019-02-11T06:35:22.786Z,29.00
2019-02-11T06:37:52.523Z,32.60
2019-02-11T06:40:22.244Z,24.23
2019-02-11T06:42:51.966Z,21.13
2019-02-11T06:45:21.655Z,28.83
2019-02-11T06:47:51.385Z,27.23
2019-02-11T06:50:21.101Z,23.63
2019-02-11T06:52:50.762Z,26.67
2019-02-11T06:55:20.471Z,25.07
2019-02-11T06:57:50.203Z,28.93
2019-02-11T07:00:19.905Z,18.57
2019-02-11T07:02:49.781Z,24.63
2019-02-11T07:05:19.478Z,22.27
2019-02-11T07:07:49.167Z,31.80
2019-02-11T07:10:18.872Z,17.03
2019-02-11T07:12:48.562Z,31.50
2019-02-11T07:15:22.252Z,24.97
2019-02-11T07:17:49.710Z,17.67
2019-02-11T07:20:19.442Z,18.70
2019-02-11T07:22:49.103Z,19.07
2019-02-11T07:25:18.813Z,15.37
2019-02-11T07:27:48.699Z,27.53
2019-02-11T07:30:18.454Z,22.87
2019-02-11T07:32:48.150Z,33.13
2019-02-11T07:35:17.858Z,22.70
2019-02-11T07:37:47.597Z,27.77
2019-02-11T07:40:17.363Z,23.70
2019-02-11T07:42:52.921Z,25.30
2019-02-11T07:45:29.897Z,25.87
2019-02-11T07:47:55.696Z,24.77
2019-02-11T07:50:25.499Z,33.50
2019-02-11T07:52:55.173Z,26.53
2019-02-11T07:55:24.888Z,29.00
2019-02-11T07:57:54.570Z,28.20
2019-02-11T08:00:24.341Z,24.43
2019-02-11T08:02:54.047Z,23.80
2019-02-11T08:05:23.757Z,27.90
2019-02-11T08:07:53.436Z,38.50
2019-02-11T08:10:23.171Z,21.27
2019-02-11T08:12:52.846Z,29.00
2019-02-11T08:15:22.562Z,25.80
2019-02-11T08:17:52.265Z,30.93
2019-02-11T08:20:21.996Z,22.27
2019-02-11T08:22:51.687Z,22.57
2019-02-11T08:25:21.366Z,28.83
2019-02-11T08:27:51.078Z,25.80
2019-02-11T08:30:20.764Z,23.07
2019-02-11T08:32:50.507Z,30.80
2019-02-11T08:35:20.296Z,26.67
2019-02-11T08:37:50.004Z,23.80
2019-02-11T08:40:19.747Z,22.10
2019-02-11T08:42:49.450Z,26.43
2019-02-11T08:45:19.139Z,20.17
2019-02-11T08:47:48.835Z,26.90
2019-02-11T09:12:19.915Z,31.63
2019-02-11T09:14:49.803Z,22.27
2019-02-11T09:17:19.660Z,24.73
2019-02-11T09:19:49.347Z,19.50
2019-02-11T09:22:19.130Z,23.83
2019-02-11T09:24:49.106Z,14.67
2019-02-11T09:27:19.089Z,18.30
2019-02-11T09:29:48.856Z,18.30
2019-02-11T09:32:21.389Z,14.87
2019-02-11T09:34:51.066Z,17.13
2019-02-11T09:37:20.825Z,18.27
2019-02-11T09:39:50.575Z,15.03
2019-02-11T09:42:20.462Z,18.17
2019-02-11T09:44:50.236Z,19.50
2019-02-11T09:47:19.980Z,22.40
2019-02-11T09:49:55.646Z,11.63
2019-02-11T09:52:25.446Z,19.77
2019-02-11T09:54:55.195Z,15.50
2019-02-11T09:57:24.946Z,13.60
2019-02-11T09:59:54.685Z,13.63
2019-02-11T10:02:24.423Z,17.43
2019-02-11T10:04:54.134Z,11.20
2019-02-11T10:07:23.854Z,6.87
2019-02-11T10:09:53.625Z,10.23
2019-02-11T10:12:23.352Z,7.63
2019-02-11T10:14:53.049Z,8.97
2019-02-11T10:17:29.712Z,8.97
2019-02-11T10:19:54.134Z,7.93
2019-02-11T10:22:29.767Z,7.60
2019-02-11T10:24:59.486Z,9.67
2019-02-11T10:27:29.171Z,14.93
2019-02-11T10:29:59.079Z,7.63
2019-02-11T10:32:28.804Z,15.03
2019-02-11T10:34:58.415Z,7.13
2019-02-11T10:37:28.018Z,5.60
2019-02-11T10:39:57.715Z,10.77
2019-02-11T10:54:46.941Z,9.20
2019-02-11T11:01:05.138Z,11.93
2019-02-11T11:03:35.033Z,8.57
2019-02-11T11:06:04.720Z,11.13
2019-02-11T11:08:34.506Z,4.83
2019-02-11T11:11:04.393Z,4.10
2019-02-11T11:13:34.036Z,2.67
2019-02-11T11:16:04.031Z,4.00
2019-02-11T11:18:33.670Z,5.30
2019-02-11T11:21:04.100Z,5.50
2019-02-11T11:23:33.781Z,5.27
2019-02-11T11:26:03.518Z,5.90
2019-02-11T11:28:33.181Z,1.83
2019-02-11T11:31:02.990Z,4.60
2019-02-11T11:33:32.757Z,2.10
2019-02-11T11:36:02.442Z,3.83
2019-02-11T11:38:32.134Z,5.27
2019-02-11T11:41:01.815Z,3.93
2019-02-11T11:43:31.575Z,3.73
2019-02-11T11:46:01.436Z,5.27
2019-02-11T11:48:31.155Z,7.27
2019-02-11T11:51:00.872Z,6.00
2019-02-11T12:12:07.837Z,5.73
2019-02-11T12:14:37.531Z,9.10
2019-02-11T12:17:07.267Z,3.97
2019-02-11T12:19:36.991Z,4.83
2019-02-11T12:22:06.771Z,4.73
2019-02-11T12:24:36.472Z,3.27
2019-02-11T12:27:06.144Z,5.27
2019-02-11T12:29:35.863Z,2.53
2019-02-11T12:32:06.974Z,6.07
2019-02-11T12:34:36.645Z,4.90
2019-02-11T12:37:09.171Z,3.60
2019-02-11T12:39:37.874Z,4.27
2019-02-11T12:42:07.613Z,7.10
2019-02-11T12:44:37.333Z,6.27
2019-02-11T12:47:13.974Z,2.90
2019-02-11T12:49:38.396Z,4.67
2019-02-11T12:52:08.329Z,5.77
2019-02-11T12:54:38.058Z,5.53
2019-02-11T12:57:07.829Z,7.63
2019-02-11T12:59:37.543Z,5.43
2019-02-11T13:02:07.349Z,5.07
2019-02-11T13:04:37.045Z,5.47
2019-02-11T13:07:08.652Z,5.27
2019-02-11T13:09:38.394Z,5.73
2019-02-11T13:12:08.068Z,5.20
2019-02-11T13:14:37.809Z,4.17
2019-02-11T13:17:15.458Z,4.50
2019-02-11T13:19:39.006Z,2.77
2019-02-11T13:22:08.681Z,4.90
2019-02-11T13:24:38.404Z,2.83
2019-02-11T13:27:08.171Z,4.63
2019-02-11T13:29:37.880Z,9.67
2019-02-11T13:32:10.612Z,8.93
2019-02-11T13:34:39.047Z,6.73
2019-02-11T13:37:08.714Z,7.73
2019-02-11T13:39:38.508Z,4.40
2019-02-11T14:01:20.986Z,4.40
2019-02-11T14:03:50.683Z,4.77
2019-02-11T14:06:20.414Z,5.37
2019-02-11T14:08:50.617Z,6.33
2019-02-11T14:11:20.380Z,2.53
2019-02-11T14:14:01.268Z,3.23
2019-02-11T14:16:21.485Z,5.77
2019-02-11T14:18:51.206Z,4.80
2019-02-11T14:21:20.880Z,1.63
2019-02-11T14:23:50.601Z,2.00
2019-02-11T14:26:20.279Z,5.07
2019-02-11T14:28:50.058Z,3.57
2019-02-11T14:31:19.913Z,15.33
2019-02-11T14:33:49.630Z,13.40
2019-02-11T14:36:19.402Z,10.37
2019-02-11T14:38:49.120Z,6.20
2019-02-11T14:41:18.825Z,9.53
2019-02-11T14:43:48.531Z,13.30
2019-02-11T14:46:18.254Z,13.37
2019-02-11T14:48:48.038Z,6.20
2019-02-11T14:51:17.737Z,7.67
2019-02-11T14:53:47.450Z,5.83
2019-02-11T14:56:17.178Z,10.27
2019-02-11T14:58:46.907Z,7.47
2019-02-11T15:01:16.592Z,7.03
2019-02-11T15:17:34.964Z,9.20
2019-02-11T15:24:04.926Z,6.90
2019-02-11T15:26:34.918Z,9.03
2019-02-11T15:29:04.705Z,7.53
2019-02-11T15:31:34.401Z,7.70
2019-02-11T15:34:04.066Z,9.93
2019-02-11T15:36:33.790Z,9.77
2019-02-11T15:39:04.494Z,8.27
2019-02-11T15:41:34.212Z,10.17
2019-02-11T15:44:03.989Z,16.50
2019-02-11T15:46:33.698Z,9.30
2019-02-11T15:49:03.431Z,12.70
2019-02-11T15:51:33.082Z,18.40
2019-02-11T15:54:02.798Z,21.80
2019-02-11T15:56:32.522Z,14.60
2019-02-11T15:59:02.190Z,16.87
2019-02-11T16:01:31.880Z,15.93
2019-02-11T16:04:01.616Z,12.77
2019-02-11T16:06:37.998Z,12.73
2019-02-11T16:09:04.878Z,14.57
2019-02-11T16:11:35.880Z,8.90
2019-02-11T16:14:05.813Z,11.40
2019-02-11T16:16:35.471Z,16.13
2019-02-11T16:19:05.227Z,13.13
2019-02-11T16:21:34.912Z,11.10
2019-02-11T16:24:04.587Z,19.73
2019-02-11T16:26:34.298Z,16.30
2019-02-11T16:29:04.002Z,9.03
2019-02-11T16:31:33.695Z,11.93
2019-02-11T16:53:05.221Z,11.50
2019-02-11T16:55:34.908Z,15.37
2019-02-11T16:58:04.678Z,10.33
2019-02-11T17:00:34.344Z,10.00
2019-02-11T17:03:04.166Z,21.37
2019-02-11T17:05:33.855Z,13.17
2019-02-11T17:08:03.542Z,11.50
2019-02-11T17:10:33.176Z,10.70
2019-02-11T17:16:21.692Z,9.13
2019-02-11T17:18:57.276Z,11.07
2019-02-11T17:21:26.901Z,15.70
2019-02-11T17:23:56.548Z,15.60
2019-02-11T17:26:26.195Z,14.10
2019-02-11T17:28:56.527Z,9.77
2019-02-11T17:31:26.228Z,6.10
2019-02-11T17:33:55.875Z,9.73
2019-02-11T17:36:25.613Z,13.10
2019-02-11T17:38:55.316Z,12.30
2019-02-11T17:41:25.033Z,8.03
2019-02-11T17:43:54.735Z,12.57
2019-02-11T17:46:24.519Z,12.10
2019-02-11T17:48:54.345Z,12.27
2019-02-11T17:51:24.094Z,11.63
2019-02-11T17:53:53.815Z,11.37
2019-02-11T17:56:23.566Z,17.97
2019-02-11T17:58:53.337Z,18.60
2019-02-11T18:01:23.132Z,15.57
2019-02-11T18:03:52.803Z,9.70
2019-02-11T18:06:22.494Z,12.33
2019-02-11T18:08:52.175Z,14.80
2019-02-11T18:11:21.936Z,10.67
2019-02-11T18:13:51.598Z,14.87
2019-02-11T18:16:21.310Z,13.03
2019-02-11T18:18:51.006Z,8.00
2019-02-11T18:21:20.721Z,18.23
2019-02-11T18:23:50.418Z,18.43
2019-02-11T18:26:20.115Z,16.03
2019-02-11T18:28:54.924Z,14.63
2019-02-11T18:31:24.634Z,12.90
2019-02-11T18:33:54.322Z,17.70
2019-02-11T18:36:24.032Z,13.83
2019-02-11T18:38:53.689Z,19.33
2019-02-11T18:41:23.359Z,20.83
2019-02-11T18:43:53.010Z,11.33
2019-02-11T18:46:22.680Z,9.30
2019-02-11T18:48:52.295Z,15.30
2019-02-11T18:51:22.025Z,10.70
2019-02-11T18:53:51.751Z,34.87
2019-02-11T18:56:21.505Z,25.13
2019-02-11T18:58:51.148Z,18.00
2019-02-11T19:01:20.798Z,14.80
2019-02-11T19:03:50.451Z,14.03
2019-02-11T19:06:20.248Z,22.37
2019-02-11T19:08:49.837Z,21.83
2019-02-11T19:11:19.554Z,28.33
2019-02-11T19:13:49.164Z,21.27
2019-02-11T19:16:18.842Z,15.23
2019-02-11T19:18:48.471Z,14.70
2019-02-11T19:21:18.189Z,17.20
2019-02-11T19:23:47.813Z,13.47
2019-02-11T19:26:17.913Z,17.73
2019-02-11T19:28:47.606Z,17.50
2019-02-11T19:31:17.369Z,18.20
2019-02-11T19:33:47.144Z,12.67
2019-02-11T19:36:16.901Z,18.50
2019-02-11T19:38:50.380Z,12.83
2019-02-11T19:41:20.069Z,10.47
2019-02-11T19:43:49.708Z,10.23
2019-02-11T19:46:19.327Z,7.67
2019-02-11T19:48:49.023Z,19.53
2019-02-11T19:51:19.023Z,20.60
2019-02-11T19:53:49.963Z,15.80
2019-02-11T19:56:19.757Z,19.87
2019-02-11T19:58:49.669Z,20.17
2019-02-11T20:01:21.333Z,25.40
2019-02-11T20:03:51.264Z,7.97
2019-02-11T20:06:21.019Z,8.50
2019-02-11T20:08:51.617Z,13.80
2019-02-11T20:11:21.329Z,9.73
2019-02-11T20:13:51.127Z,20.87
2019-02-11T20:16:20.694Z,20.13
2019-02-11T20:18:50.336Z,17.43
2019-02-11T20:21:19.955Z,16.37
2019-02-11T20:23:49.625Z,20.83
2019-02-11T20:26:19.238Z,17.43
2019-02-11T20:28:48.916Z,10.67
2019-02-11T20:31:18.530Z,12.40
2019-02-11T20:33:48.155Z,14.83
2019-02-11T20:36:17.798Z,10.70
2019-02-11T20:38:47.456Z,16.87
2019-02-11T20:41:17.073Z,16.73
2019-02-11T20:43:46.804Z,16.37
2019-02-11T20:46:16.441Z,13.10
2019-02-11T20:48:46.138Z,13.53
2019-02-11T20:51:15.885Z,14.27
2019-02-11T20:53:45.541Z,13.30
2019-02-11T20:56:15.455Z,15.97
2019-02-11T20:58:45.125Z,13.43
2019-02-11T21:01:14.836Z,12.97
2019-02-11T21:03:44.561Z,12.53
2019-02-11T21:06:14.250Z,17.10
2019-02-11T21:08:43.972Z,15.40
2019-02-11T21:11:16.616Z,15.87
2019-02-11T21:13:46.258Z,13.03
2019-02-11T21:16:15.926Z,16.73
2019-02-11T21:18:45.568Z,15.17
2019-02-11T21:21:15.233Z,15.07
2019-02-11T21:23:44.839Z,13.77
2019-02-11T21:26:14.500Z,20.07
2019-02-11T21:28:44.149Z,16.43
2019-02-11T21:31:13.773Z,10.23
2019-02-11T21:33:43.500Z,12.13
2019-02-11T21:36:13.136Z,22.27
2019-02-11T21:38:42.840Z,15.23
2019-02-11T21:41:15.084Z,16.17
2019-02-11T21:43:44.046Z,10.40
2019-02-11T21:46:13.721Z,7.37
2019-02-11T21:48:43.427Z,16.40
2019-02-11T21:51:13.094Z,16.77
2019-02-11T21:53:42.801Z,11.83
2019-02-11T21:56:12.466Z,10.13
2019-02-11T21:58:42.191Z,11.77
2019-02-11T22:01:11.906Z,17.10
2019-02-11T22:03:41.608Z,8.73
2019-02-11T22:06:11.351Z,13.20
2019-02-11T22:08:41.053Z,10.10
2019-02-11T22:11:10.735Z,8.37
2019-02-11T22:13:40.409Z,12.73
2019-02-11T22:16:10.099Z,9.20
2019-02-11T22:18:39.798Z,8.00
2019-02-11T22:21:09.493Z,11.63
2019-02-11T22:23:39.473Z,4.80
2019-02-11T22:26:09.151Z,11.03
2019-02-11T22:28:38.881Z,15.73
2019-02-11T22:31:08.613Z,15.07
2019-02-11T22:33:38.333Z,16.87
2019-02-11T22:36:08.047Z,10.83
2019-02-11T22:38:37.783Z,15.07
2019-02-11T22:41:07.491Z,12.73
2019-02-11T22:43:37.211Z,21.70
2019-02-11T22:46:06.936Z,14.33
2019-02-11T22:48:36.602Z,8.13
2019-02-11T22:51:06.353Z,11.23
2019-02-11T22:53:36.016Z,15.10
2019-02-11T22:56:05.723Z,19.03
2019-02-11T22:58:35.428Z,13.07
2019-02-11T23:01:05.979Z,10.37
2019-02-11T23:03:36.108Z,14.97
2019-02-11T23:06:06.040Z,9.10
2019-02-11T23:08:35.729Z,16.90
2019-02-11T23:11:05.443Z,9.30
2019-02-11T23:13:35.134Z,13.10
2019-02-11T23:16:04.859Z,13.50
2019-02-11T23:18:34.566Z,21.90
2019-02-11T23:21:04.405Z,13.63
2019-02-11T23:23:34.138Z,15.33
2019-02-11T23:26:03.882Z,14.50
2019-02-11T23:28:33.552Z,8.07
2019-02-11T23:31:03.236Z,8.77
2019-02-11T23:33:32.873Z,9.87
2019-02-11T23:36:02.604Z,10.20
2019-02-11T23:38:32.270Z,6.97
2019-02-11T23:41:02.036Z,8.47
2019-02-11T23:43:32.275Z,11.30
2019-02-11T23:46:02.001Z,18.40
2019-02-11T23:48:31.668Z,7.43
2019-02-11T23:51:01.360Z,10.70
2019-02-11T23:53:31.094Z,11.30
2019-02-11T23:56:00.799Z,6.83
2019-02-11T23:58:30.465Z,6.00
